Harrisburg, Alabama
Current Conditions -  °F | °C
As of 2:15 PM on Wednesday 26 Nov 2014 (Local Time) from KASN Reporting Station
Clear Clear  
Wind Chill: 59°   Ceiling: Unl
Heat Index: 59°   Visibility: 10mi
Dew Point: 25°   Wind: 7mph
Humidity: 27%   Direction: 250°WSW
Pressure: 30.1"   Gusts: NA
Location:  33.5807°N, 86.3463°W
Report Text: KASN 262015Z AUTO 25006KT 10SM CLR 15/M04 A3010 RMK AO2 T01501039
Loading
Personal Weather Stations






























Interactive Weather Map New forecast layout! Learn more

10-Day Weather Forecast

Advertisements
Track Severe Weather on mobile